ěÝzenÝ letovÚho provozu ╚eskÚ republiky
Letiste: LKBC Aktualizace: 01.03.2021 17:58:24  UTC
 METAR LKBC 01.03. 18:00 ...
METAR LKBC 011800Z AUTO 32002KT 7000 NCD 03/02 Q1033=